x

Buoy E01 - Central Maine Shelf (44032) Wave Buoy

7:04 - Wed 22nd Mar 2017 All times are EDT. -4 hours from GMT.

  • Sig Wave height 6.2ft
  • Peak Period 5s
  • Wind
    36mph, 43mph gusts
  • Sea Temp 38°f
  • Ar Temp 20°f
  • Sea Pressure 1016.8mb
  • Buoy E01 - Central Maine Shelf
  • Buoy E01 - Central Maine Shelf

More Historic Weather Station data

Upgrade to MSW Pro to gain access to the past 30 days of data for over 8000 Wavebouys and Weather Stations around the globe.

Join Pro

Comparision Forecast

View Surf forecast
   
Qua 03/22 7:04 6ft 5s 36 43 mph 1016.8mb 38f 20f
6:04 6ft 5s 31 43 mph 1014.9mb 38f 22f
5:04 5.5ft 5s 31 38 mph 1013.6mb 38f 22f
4:04 5ft 5s 34 43 mph 1012.4mb 38f 23f
3:04 5ft 5s 31 38 mph 1011.6mb 38f 24f
2:04 5ft 5s 31 40 mph 1010.7mb 38f 25f
1:04 5ft 5s 31 38 mph 1010mb 38f 26f
12:04 5ft 5s 31 36 mph 1009mb 38f 27f
11:04 5ft 5s 29 36 mph 1008.6mb 38f 26f
10:04 4.5ft 5s 34 43 mph 1007.3mb 38f 27f
9:04  -   -  29 38 mph 1005.1mb 38f 33f
8:04 2.5ft 11s 9 11 mph 1004mb 38f 38f
7:04 2.5ft 11s 7 9 mph 1004.1mb 38f 38f
6:04 2.5ft 11s 9 11 mph 1004.4mb 38f 38f
5:04 2.5ft 11s 9 13 mph 1004.7mb 38f 38f
4:04 3ft 11s 7 9 mph 1005.1mb 38f 38f
3:04 3ft 11s 11 16 mph 1005.9mb 38f 38f
2:04 2.5ft 11s 7 9 mph 1006.3mb 38f 38f
1:04 3.5ft 11s 2 4 mph 1006.7mb 39f 38f
12:04 3ft 11s 4 7 mph 1007.3mb 39f 38f
Ter 03/21 11:04 3.5ft 11s 4
mph
1007.4mb 39f 40f
10:04 3.5ft 11s 9
mph
1007.7mb 39f 40f
9:04 3ft 11s 7 9 mph 1008.1mb 39f 40f
8:04 3ft 11s 9
mph
1007.7mb 39f 40f
7:04 3ft 11s 9
mph
1007.5mb 39f 41f
6:04 4ft 11s 9 11 mph 1007.4mb 39f 41f
5:04 3ft 11s 11 13 mph 1007.6mb 39f 40f
4:04 3.5ft 11s 11 13 mph 1007.9mb 40f 40f
3:04 3.5ft 11s 9 11 mph 1008.2mb 40f 40f
2:04 3.5ft 11s 4 7 mph 1008.7mb 39f 41f
1:04 4.5ft 11s 2 4 mph 1009.5mb 39f 41f
12:04 4.5ft 11s 4
mph
1010.1mb 39f 40f
11:04 4.5ft 11s 7 9 mph 1010.4mb 38f 39f
10:04 4.5ft 11s 9 11 mph 1010.7mb 38f 38f
9:04 3.5ft 11s 7
mph
1010.4mb 39f 38f
8:04 4.5ft 11s 7 9 mph 1009.9mb 39f 38f
7:04 5ft 11s 9 11 mph 1009.8mb 38f 37f
6:04 4.5ft 11s 7 9 mph 1009.9mb 38f 37f
5:04 4.5ft 11s 11 13 mph 1009.8mb 38f 38f
4:04 4.5ft 11s 11 13 mph 1009.7mb 38f 37f
3:04 4.5ft 11s 11 16 mph 1010.1mb 38f 38f
2:04 5ft 11s 9 11 mph 1010.7mb 38f 38f
1:04 5ft 11s 11 16 mph 1011.1mb 38f 38f
12:04 6ft 11s 7 9 mph 1011.2mb 38f 38f
Seg 03/20 11:04 5.5ft 8s 4
mph
1011.7mb 38f 38f
10:04 6ft 11s 7 9 mph 1012mb 39f 39f
9:04 6ft 11s 9
mph
1012.4mb 39f 40f
8:04 5.5ft 11s 7
mph
1012.8mb 39f 39f
7:04 6.5ft 11s 7 9 mph 1012.5mb 39f 40f
6:04 6ft 11s 13 16 mph 1012.1mb 39f 43f
5:04 6ft 11s 4 7 mph 1012.3mb 39f 42f
4:04 6.5ft 11s 9 11 mph 1012.7mb 39f 40f
3:04 7ft 11s 13 16 mph 1012.9mb 39f 40f
2:04 7ft 11s 11 13 mph 1014.3mb 39f 38f
1:04 7.5ft 11s 16 18 mph 1014.9mb 38f 40f
12:04 8ft 11s 20 25 mph 1015.8mb 38f 39f
11:04 8.5ft 11s 18 22 mph 1016mb 38f 37f
10:04  -   -  20 25 mph 1016.5mb 38f 35f
9:04 10ft 11s 22 27 mph 1016.6mb 38f 34f
8:04 11ft 11s 22 27 mph 1016.6mb 38f 33f
7:04 11ft 11s 22 27 mph 1016.3mb 38f 33f
6:04 11.5ft 11s 25 29 mph 1015.9mb 38f 34f
5:04 12ft 11s 22 27 mph 1015.9mb 38f 35f
4:04 10ft 11s 22 25 mph 1015.7mb 38f 35f
3:04 9ft 11s 22 29 mph 1016mb 38f 35f
2:04 9ft 8s 20 22 mph 1016.8mb 38f 36f
1:04 10ft 11s 18 20 mph 1017.4mb 38f 36f
12:04 10ft 11s 18 20 mph 1017.7mb 38f 36f
Dom 03/19 11:04 9ft 11s 13 16 mph 1018.7mb 38f 37f
10:04 9.5ft 8s 13 18 mph 1019.2mb 38f 37f
9:04 9.5ft 11s 16 18 mph 1019.9mb 38f 37f
8:04 7.5ft 8s 13 18 mph 1020.4mb 38f 36f
7:04 8ft 8s 18 20 mph 1020.3mb 39f 36f
6:04 7ft 8s 20 25 mph 1019.9mb 39f 36f
5:04 8.5ft 8s 22 27 mph 1020.6mb 39f 36f
4:04 7ft 6s 22 27 mph 1021.5mb 39f 35f
3:04 7ft 6s 22 27 mph 1022.4mb 39f 35f
2:04 6.5ft 6s 22 27 mph 1023.7mb 38f 35f
1:04 6ft 6s 25 29 mph 1024.4mb 38f 34f
12:04 6ft 6s 25 29 mph 1025.1mb 38f 34f
11:04 5.5ft 6s 22 27 mph 1025.9mb 38f 33f
10:04 5ft 6s 22 25 mph 1026.1mb 38f 33f
9:04 4.5ft 5s 20 25 mph 1026.2mb 38f 33f
8:04 4ft 5s 20 25 mph 1026.5mb 38f 35f
7:04 4ft 5s 18 22 mph 1026.4mb 39f 34f
6:04 3.5ft 5s 18 20 mph 1026.2mb 39f 35f
5:04 2.5ft 4s 18 22 mph 1026.3mb 38f 34f
4:04 2.5ft 4s 18 20 mph 1025.9mb 38f 34f
3:04 1.6ft 3s 16 18 mph 1026.5mb 38f 34f
2:04 1.6ft 3s 16 18 mph 1026.7mb 38f 34f
1:04 1.3ft 3s 13 18 mph 1027.2mb 38f 33f